»·PEaware :: ASA980 KLAS-KSAN

ASA980 :: KLAS-KSAN

FLIGHT INFORMATION

Flight Status: Arrived
Operator:
Alaska Airlines
More flights by this operator :: More flights under this callsign
Pilot: Erik S. (14620)
Aircraft: BOEING 737-800
(B738)
More flights by this aircraft type
Origin: KLAS McCarran Intl
United States
Destination: KSAN San Diego Intl-Lindbergh
United States
More flights between these airports :: More routes between these airports
Route: +BOACH8 LVELL LUCKI1
File this flight plan on PilotEdge
Remarks:
Altitude:
(Current/Filed)
32,000ft
Speed:
(Current/Filed)
448kts
Departed: 08-May-18 09:48 AM
Arrived: 08-May-18 10:34 AM
Distance/Time
Traveled:
225nm/0:46
Distance/Time
To Go:
Arrived

Flight Plot

Page will automatically refresh every two minutes.

Flight plan parsing failed; only flown route is shown


Map Options




Map Legend


Flown Route
Filed Route
Departure Airport
Arrival Airport
Navaid (VOR, NDB)
Fix

Horizontal Profiles

Position Reports

Time Latitude Longitude Heading Altitude Ground
Speed
08-May-18 09:20 36.085356 -115.139999 360 2149ft 0kts
08-May-18 09:21 36.085356 -115.139999 360 2149ft 0kts
08-May-18 09:22 36.085356 -115.139999 360 2149ft 0kts
08-May-18 09:23 36.085356 -115.139999 360 2149ft 0kts
08-May-18 09:24 36.085356 -115.139999 360 2149ft 0kts
08-May-18 09:25 36.085356 -115.139999 360 2149ft 0kts
08-May-18 09:26 36.085356 -115.139999 360 2149ft 0kts
08-May-18 09:27 36.085356 -115.139999 360 2149ft 0kts
08-May-18 09:28 36.085356 -115.139999 360 2149ft 0kts
08-May-18 09:29 36.085356 -115.139999 360 2149ft 0kts
08-May-18 09:30 36.085356 -115.139999 360 2149ft 0kts
08-May-18 09:31 36.085356 -115.139999 360 2149ft 0kts
08-May-18 09:32 36.085356 -115.139999 360 2149ft 0kts
08-May-18 09:33 36.085356 -115.139999 0 2149ft 0kts
08-May-18 09:34 36.085356 -115.139999 360 2149ft 0kts
08-May-18 09:35 36.085356 -115.139999 359 2149ft 0kts
08-May-18 09:36 36.084987 -115.139998 0 2149ft 1kts
08-May-18 09:37 36.084646 -115.139583 268 2149ft 1kts
08-May-18 09:38 36.084648 -115.139530 270 2149ft 0kts
08-May-18 09:39 36.084648 -115.139530 270 2149ft 0kts
08-May-18 09:40 36.084648 -115.139614 270 2149ft 3kts
08-May-18 09:41 36.083064 -115.141603 178 2149ft 11kts
08-May-18 09:42 36.079332 -115.141489 140 2149ft 5kts
08-May-18 09:43 36.078270 -115.138288 90 2149ft 15kts
08-May-18 09:44 36.078271 -115.132344 90 2149ft 17kts
08-May-18 09:45 36.078269 -115.126558 90 2149ft 16kts
08-May-18 09:46 36.077556 -115.122402 180 2149ft 0kts
08-May-18 09:47 36.077556 -115.122402 180 2149ft 0kts
08-May-18 09:48 36.076428 -115.130053 269 2149ft 104kts
08-May-18 09:49 36.076627 -115.187173 270 4085ft 181kts
08-May-18 09:50 36.067211 -115.255607 232 5432ft 265kts
08-May-18 09:51 35.996264 -115.294144 198 7037ft 287kts
08-May-18 09:52 35.920315 -115.311579 182 8252ft 281kts
08-May-18 09:53 35.841072 -115.317230 173 10686ft 308kts
08-May-18 09:54 35.751748 -115.305340 172 13165ft 334kts
08-May-18 09:55 35.657212 -115.296421 179 15853ft 353kts
08-May-18 09:56 35.558202 -115.299975 180 18332ft 371kts
08-May-18 09:57 35.453115 -115.304023 181 20656ft 388kts
08-May-18 09:58 35.343283 -115.308271 181 22804ft 403kts
08-May-18 09:59 35.229832 -115.312663 182 24791ft 410kts
08-May-18 10:00 35.113541 -115.317170 183 26463ft 425kts
08-May-18 10:01 34.994490 -115.321762 184 28288ft 432kts
08-May-18 10:02 34.876600 -115.326262 186 30297ft 427kts
08-May-18 10:03 34.760618 -115.337892 203 31933ft 415kts
08-May-18 10:04 34.648387 -115.387264 205 32044ft 446kts
08-May-18 10:05 34.529943 -115.439538 204 32119ft 456kts
08-May-18 10:06 34.411103 -115.491546 204 32124ft 456kts
08-May-18 10:07 34.295237 -115.547929 216 32146ft 449kts
08-May-18 10:08 34.188601 -115.623361 207 32140ft 455kts
08-May-18 10:09 34.078367 -115.676215 205 32131ft 455kts
08-May-18 10:10 33.960788 -115.731769 205 32008ft 455kts
08-May-18 10:11 33.848157 -115.786023 206 31063ft 437kts
08-May-18 10:12 33.737145 -115.839971 205 28521ft 420kts
08-May-18 10:13 33.629524 -115.890417 204 26294ft 412kts
08-May-18 10:14 33.525538 -115.941177 215 24136ft 394kts
08-May-18 10:15 33.457671 -116.040603 237 22832ft 396kts
08-May-18 10:16 33.399155 -116.141991 237 20701ft 368kts
08-May-18 10:17 33.340533 -116.241021 228 19084ft 364kts
08-May-18 10:18 33.253047 -116.300822 207 17316ft 360kts
08-May-18 10:19 33.164253 -116.352563 207 15765ft 352kts
08-May-18 10:20 33.078301 -116.402609 207 14290ft 343kts
08-May-18 10:21 32.996004 -116.452985 218 12834ft 329kts
08-May-18 10:22 32.926828 -116.522219 220 11345ft 321kts
08-May-18 10:23 32.861623 -116.588171 220 9966ft 290kts
08-May-18 10:24 32.803473 -116.646877 220 8707ft 273kts
08-May-18 10:25 32.756295 -116.708094 241 7545ft 240kts
08-May-18 10:26 32.725574 -116.775658 241 6500ft 231kts
08-May-18 10:27 32.697430 -116.842723 250 5298ft 218kts
08-May-18 10:28 32.685339 -116.904082 276 4469ft 189kts
08-May-18 10:29 32.691196 -116.971515 275 2405ft 229kts
08-May-18 10:30 32.696421 -117.035946 284 1352ft 165kts
08-May-18 10:31 32.706846 -117.083352 285 700ft 142kts
08-May-18 10:32 32.718007 -117.128435 282 800ft 148kts
08-May-18 10:33 32.729899 -117.174570 283 160ft 146kts
08-May-18 10:34 32.734998 -117.198632 250 25ft 20kts
08-May-18 10:35 32.734498 -117.199581 214 25ft 9kts
08-May-18 10:36 32.733392 -117.199128 117 25ft 0kts
08-May-18 10:37 32.733392 -117.199128 117 25ft 0kts
08-May-18 10:38 32.733392 -117.199128 117 25ft 0kts

Navigation Log

Ident Type
Flight plan parsing failed, navigation log unavailable